createdAt,value
2018-02-05T00:00:43.406Z,11.12
2018-02-05T00:03:12.913Z,11.30
2018-02-05T00:05:42.443Z,12.98
2018-02-05T00:08:11.917Z,12.15
2018-02-05T00:10:41.396Z,12.10
2018-02-05T00:13:10.847Z,10.65
2018-02-05T00:15:40.367Z,11.30
2018-02-05T00:18:09.837Z,10.73
2018-02-05T00:20:39.330Z,10.10
2018-02-05T00:23:08.836Z,10.80
2018-02-05T00:25:38.334Z,11.10
2018-02-05T00:28:07.819Z,10.85
2018-02-05T00:30:37.319Z,12.20
2018-02-05T00:33:06.788Z,12.90
2018-02-05T00:35:36.302Z,11.60
2018-02-05T00:38:05.793Z,12.77
2018-02-05T00:40:35.321Z,12.32
2018-02-05T00:43:04.796Z,12.10
2018-02-05T00:45:34.335Z,12.45
2018-02-05T00:48:03.838Z,12.32
2018-02-05T00:50:33.319Z,11.60
2018-02-05T00:53:02.813Z,11.93
2018-02-05T00:55:32.291Z,12.65
2018-02-05T00:58:01.796Z,12.85
2018-02-05T01:00:31.270Z,11.48
2018-02-05T01:03:00.778Z,11.95
2018-02-05T01:05:30.327Z,12.70
2018-02-05T01:07:59.868Z,10.82
2018-02-05T01:10:29.343Z,12.15
2018-02-05T01:12:58.868Z,11.32
2018-02-05T01:15:28.329Z,11.90
2018-02-05T01:17:57.854Z,11.80
2018-02-05T01:20:27.341Z,11.82
2018-02-05T01:22:56.825Z,13.52
2018-02-05T01:25:26.279Z,12.00
2018-02-05T01:27:55.799Z,10.88
2018-02-05T01:30:25.316Z,12.13
2018-02-05T01:32:54.793Z,10.95
2018-02-05T01:35:24.303Z,11.82
2018-02-05T01:37:53.803Z,12.05
2018-02-05T01:40:23.366Z,10.88
2018-02-05T01:42:52.837Z,12.02
2018-02-05T01:45:22.338Z,11.95
2018-02-05T01:47:51.810Z,11.35
2018-02-05T01:50:21.316Z,11.15
2018-02-05T01:52:50.799Z,11.12
2018-02-05T01:55:20.321Z,11.60
2018-02-05T01:57:49.812Z,11.50
2018-02-05T02:00:19.352Z,12.32
2018-02-05T02:02:48.824Z,11.05
2018-02-05T02:05:18.331Z,11.23
2018-02-05T02:07:47.794Z,11.20
2018-02-05T02:10:17.312Z,11.02
2018-02-05T02:12:46.800Z,11.52
2018-02-05T02:15:16.294Z,11.50
2018-02-05T02:17:45.819Z,11.10
2018-02-05T02:20:15.285Z,12.02
2018-02-05T02:22:44.865Z,10.55
2018-02-05T02:25:14.302Z,10.63
2018-02-05T02:27:43.800Z,12.05
2018-02-05T02:30:13.431Z,12.52
2018-02-05T02:32:42.908Z,11.07
2018-02-05T02:35:12.414Z,12.73
2018-02-05T02:37:41.903Z,11.30
2018-02-05T02:40:11.415Z,11.70
2018-02-05T02:42:40.901Z,12.57
2018-02-05T02:45:10.407Z,11.75
2018-02-05T02:47:39.885Z,11.65
2018-02-05T02:50:09.401Z,12.37
2018-02-05T02:52:38.854Z,12.57
2018-02-05T02:55:08.417Z,14.30
2018-02-05T02:57:38.014Z,13.23
2018-02-05T03:00:07.542Z,14.18
2018-02-05T03:02:37.032Z,13.77
2018-02-05T03:05:06.578Z,13.38
2018-02-05T03:07:36.037Z,13.80
2018-02-05T03:10:05.560Z,14.43
2018-02-05T03:12:35.022Z,14.10
2018-02-05T03:15:04.560Z,15.27
2018-02-05T03:17:34.039Z,14.60
2018-02-05T03:20:03.585Z,14.13
2018-02-05T03:22:33.078Z,15.05
2018-02-05T03:25:02.585Z,16.05
2018-02-05T03:27:32.087Z,13.98
2018-02-05T03:30:01.586Z,13.90
2018-02-05T03:32:31.103Z,15.60
2018-02-05T03:35:00.577Z,14.48
2018-02-05T03:37:30.086Z,13.73
2018-02-05T03:39:59.559Z,14.45
2018-02-05T03:42:29.072Z,12.27
2018-02-05T03:44:58.541Z,14.27
2018-02-05T03:47:28.054Z,13.07
2018-02-05T03:49:57.563Z,14.55
2018-02-05T03:52:27.086Z,11.23
2018-02-05T03:54:56.532Z,13.02
2018-02-05T03:57:26.056Z,13.80
2018-02-05T03:59:55.560Z,13.80
2018-02-05T04:02:25.081Z,12.30
2018-02-05T04:04:54.595Z,13.85
2018-02-05T04:07:24.047Z,12.05
2018-02-05T04:09:53.612Z,14.45
2018-02-05T04:12:23.085Z,14.55
2018-02-05T04:14:52.594Z,14.00
2018-02-05T04:17:22.092Z,13.70
2018-02-05T04:19:51.594Z,15.52
2018-02-05T04:22:21.084Z,14.60
2018-02-05T04:24:50.582Z,15.85
2018-02-05T04:27:20.062Z,14.52
2018-02-05T04:29:49.563Z,15.40
2018-02-05T04:32:19.028Z,13.27
2018-02-05T04:34:48.530Z,14.15
2018-02-05T04:37:18.004Z,13.35
2018-02-05T04:39:47.525Z,13.15
2018-02-05T04:42:17.016Z,12.98
2018-02-05T04:44:46.525Z,13.88
2018-02-05T04:47:16.031Z,14.60
2018-02-05T04:49:45.518Z,12.75
2018-02-05T04:52:14.998Z,13.25
2018-02-05T04:54:44.478Z,12.20
2018-02-05T04:57:13.998Z,13.45
2018-02-05T04:59:43.487Z,12.30
2018-02-05T05:02:12.990Z,13.13
2018-02-05T05:04:42.488Z,13.45
2018-02-05T05:07:12.075Z,13.10
2018-02-05T05:09:41.571Z,13.00
2018-02-05T05:12:11.095Z,12.82
2018-02-05T05:14:40.685Z,12.77
2018-02-05T05:17:10.189Z,13.00
2018-02-05T05:19:39.659Z,14.07
2018-02-05T05:22:09.198Z,12.88
2018-02-05T05:24:38.634Z,14.23
2018-02-05T05:27:08.131Z,14.10
2018-02-05T05:29:37.600Z,13.32
2018-02-05T05:32:07.120Z,14.13
2018-02-05T05:34:36.623Z,13.77
2018-02-05T05:37:06.110Z,13.93
2018-02-05T05:39:35.639Z,14.73
2018-02-05T05:42:05.135Z,13.13
2018-02-05T05:44:34.679Z,16.17
2018-02-05T05:47:04.303Z,14.20
2018-02-05T05:49:33.773Z,14.40
2018-02-05T05:52:03.269Z,13.60
2018-02-05T05:54:32.775Z,14.55
2018-02-05T05:57:02.294Z,16.95
2018-02-05T05:59:31.762Z,17.42
2018-02-05T06:02:01.280Z,16.40
2018-02-05T06:04:30.788Z,18.40
2018-02-05T06:07:00.227Z,17.50
2018-02-05T06:09:29.753Z,18.58
2018-02-05T06:11:59.228Z,18.65
2018-02-05T06:14:28.749Z,18.20
2018-02-05T06:16:58.248Z,21.65
2018-02-05T06:19:27.732Z,18.83
2018-02-05T06:21:57.244Z,17.40
2018-02-05T06:24:26.763Z,18.73
2018-02-05T06:26:56.282Z,19.08
2018-02-05T06:29:25.780Z,17.10
2018-02-05T06:31:55.270Z,17.73
2018-02-05T06:34:24.745Z,19.17
2018-02-05T06:36:54.265Z,18.15
2018-02-05T06:39:23.764Z,18.95
2018-02-05T06:41:53.259Z,18.40
2018-02-05T06:44:22.771Z,16.85
2018-02-05T06:46:52.278Z,19.35
2018-02-05T06:49:21.757Z,19.67
2018-02-05T06:51:57.052Z,19.62
2018-02-05T06:54:32.477Z,18.48
2018-02-05T06:57:01.973Z,19.52
2018-02-05T06:59:31.469Z,17.83
2018-02-05T07:02:00.948Z,17.87
2018-02-05T07:04:30.447Z,18.33
2018-02-05T07:07:00.145Z,17.42
2018-02-05T07:09:29.633Z,16.05
2018-02-05T07:11:59.173Z,19.62
2018-02-05T07:14:28.654Z,16.92
2018-02-05T07:16:58.126Z,16.73
2018-02-05T07:19:27.633Z,17.90
2018-02-05T07:21:57.200Z,17.27
2018-02-05T07:24:26.689Z,17.67
2018-02-05T07:26:56.211Z,16.08
2018-02-05T07:29:25.721Z,18.83
2018-02-05T07:31:55.254Z,16.23
2018-02-05T07:34:24.823Z,18.20
2018-02-05T07:36:54.313Z,17.35
2018-02-05T07:39:23.785Z,17.80
2018-02-05T07:41:53.316Z,18.08
2018-02-05T07:44:22.802Z,18.27
2018-02-05T07:46:52.288Z,18.70
2018-02-05T07:49:21.796Z,18.27
2018-02-05T07:51:51.290Z,17.12
2018-02-05T07:54:20.794Z,20.58
2018-02-05T07:56:50.394Z,21.42
2018-02-05T07:59:19.907Z,22.77
2018-02-05T08:01:50.219Z,18.10
2018-02-05T08:04:19.719Z,18.05
2018-02-05T08:06:49.200Z,18.50
2018-02-05T08:09:18.784Z,22.52
2018-02-05T08:11:48.279Z,19.67
2018-02-05T08:14:17.771Z,19.17
2018-02-05T08:16:47.293Z,22.15
2018-02-05T08:19:16.769Z,18.55
2018-02-05T08:21:46.308Z,16.45
2018-02-05T08:24:15.785Z,18.02
2018-02-05T08:26:45.332Z,17.40
2018-02-05T08:29:14.791Z,17.62
2018-02-05T08:31:44.318Z,17.95
2018-02-05T08:34:13.843Z,19.73
2018-02-05T08:36:43.399Z,17.92
2018-02-05T08:39:12.988Z,18.92
2018-02-05T08:41:42.455Z,18.40
2018-02-05T08:44:11.973Z,18.95
2018-02-05T08:46:41.451Z,16.90
2018-02-05T08:49:10.959Z,18.73
2018-02-05T08:51:40.443Z,16.17
2018-02-05T08:54:09.952Z,16.87
2018-02-05T08:56:39.422Z,17.67
2018-02-05T08:59:08.949Z,17.30
2018-02-05T09:01:38.563Z,17.60
2018-02-05T09:04:08.064Z,16.02
2018-02-05T09:06:37.578Z,15.90
2018-02-05T09:09:07.073Z,17.42
2018-02-05T09:11:36.590Z,17.00
2018-02-05T09:14:06.104Z,15.75
2018-02-05T09:16:35.619Z,16.98
2018-02-05T09:19:05.123Z,16.17
2018-02-05T09:21:34.633Z,15.18
2018-02-05T09:24:04.133Z,16.73
2018-02-05T09:26:33.610Z,16.48
2018-02-05T09:29:03.124Z,17.10
2018-02-05T09:31:32.629Z,18.55
2018-02-05T09:34:02.127Z,17.87
2018-02-05T09:36:31.654Z,16.98
2018-02-05T09:39:01.120Z,16.30
2018-02-05T09:41:30.641Z,14.15
2018-02-05T09:44:00.156Z,13.30
2018-02-05T09:46:29.675Z,14.40
2018-02-05T09:48:59.163Z,13.65
2018-02-05T09:51:28.675Z,15.13
2018-02-05T09:53:58.184Z,15.30
2018-02-05T09:56:27.675Z,13.13
2018-02-05T09:58:57.168Z,17.45
2018-02-05T10:01:26.692Z,15.68
2018-02-05T10:03:56.152Z,15.13
2018-02-05T10:06:25.654Z,12.32
2018-02-05T10:08:55.127Z,16.23
2018-02-05T10:11:24.637Z,13.65
2018-02-05T10:13:54.135Z,13.55
2018-02-05T10:16:23.670Z,12.85
2018-02-05T10:18:53.132Z,16.10
2018-02-05T10:21:22.670Z,14.52
2018-02-05T10:23:52.183Z,11.45
2018-02-05T10:26:21.690Z,11.00
2018-02-05T10:28:51.191Z,12.65
2018-02-05T10:31:20.709Z,14.00
2018-02-05T10:33:50.220Z,13.68
2018-02-05T10:36:19.676Z,11.20
2018-02-05T10:38:49.177Z,10.30
2018-02-05T10:41:18.677Z,12.57
2018-02-05T10:43:48.156Z,12.32
2018-02-05T10:46:17.665Z,13.65
2018-02-05T10:48:47.141Z,12.60
2018-02-05T10:51:16.677Z,13.77
2018-02-05T10:53:46.131Z,12.45
2018-02-05T10:56:15.653Z,10.50
2018-02-05T10:58:45.194Z,12.73
2018-02-05T11:01:14.731Z,13.15
2018-02-05T11:03:44.352Z,13.65
2018-02-05T11:06:13.820Z,12.90
2018-02-05T11:08:43.357Z,11.85
2018-02-05T11:11:12.870Z,12.15
2018-02-05T11:13:42.385Z,12.00
2018-02-05T11:16:11.895Z,12.15
2018-02-05T11:18:41.395Z,13.75
2018-02-05T11:21:10.911Z,12.50
2018-02-05T11:23:40.484Z,12.75
2018-02-05T11:26:09.982Z,13.13
2018-02-05T11:28:39.470Z,13.27
2018-02-05T11:31:08.967Z,12.43
2018-02-05T11:33:38.454Z,13.30
2018-02-05T11:36:07.935Z,12.85
2018-02-05T11:38:37.417Z,13.18
2018-02-05T11:41:07.102Z,12.57
2018-02-05T11:43:36.581Z,12.52
2018-02-05T11:46:06.104Z,13.65
2018-02-05T11:48:35.627Z,12.98
2018-02-05T11:51:05.104Z,13.40
2018-02-05T11:53:34.611Z,13.45
2018-02-05T11:56:04.094Z,13.98
2018-02-05T11:58:33.683Z,13.20
2018-02-05T12:01:03.247Z,14.25
2018-02-05T12:03:32.757Z,13.05
2018-02-05T12:06:02.245Z,12.90
2018-02-05T12:08:31.757Z,14.25
2018-02-05T12:11:01.218Z,12.75
2018-02-05T12:13:30.742Z,15.80
2018-02-05T12:16:00.265Z,12.63
2018-02-05T12:18:29.733Z,13.48
2018-02-05T12:20:59.235Z,13.52
2018-02-05T12:23:28.713Z,11.38
2018-02-05T12:25:58.306Z,12.23
2018-02-05T12:28:27.809Z,12.13
2018-02-05T12:30:57.285Z,11.80
2018-02-05T12:33:26.761Z,11.10
2018-02-05T12:35:56.282Z,12.35
2018-02-05T12:38:25.752Z,12.48
2018-02-05T12:40:55.294Z,11.52
2018-02-05T12:43:24.823Z,11.20
2018-02-05T12:45:54.306Z,12.60
2018-02-05T12:48:23.779Z,12.57
2018-02-05T12:50:53.296Z,11.32
2018-02-05T12:53:22.774Z,12.35
2018-02-05T12:55:52.279Z,12.85
2018-02-05T12:58:21.774Z,12.18
2018-02-05T13:01:07.088Z,14.27
2018-02-05T13:03:36.551Z,12.60
2018-02-05T13:06:11.776Z,10.70
2018-02-05T13:08:41.281Z,11.68
2018-02-05T13:11:10.773Z,11.45
2018-02-05T13:13:40.245Z,12.18
2018-02-05T13:16:09.753Z,11.40
2018-02-05T13:18:39.286Z,11.55
2018-02-05T13:21:08.741Z,11.48
2018-02-05T13:23:38.246Z,10.85
2018-02-05T13:26:07.710Z,11.50
2018-02-05T13:28:37.192Z,11.25
2018-02-05T13:31:06.686Z,11.15
2018-02-05T13:33:36.172Z,10.88
2018-02-05T13:36:05.636Z,11.15
2018-02-05T13:38:35.147Z,11.25
2018-02-05T13:41:04.672Z,11.30
2018-02-05T13:43:34.157Z,11.77
2018-02-05T13:46:03.661Z,12.25
2018-02-05T13:48:33.177Z,11.63
2018-02-05T13:51:02.658Z,12.45
2018-02-05T13:53:32.161Z,11.80
2018-02-05T13:56:01.691Z,12.35
2018-02-05T13:58:31.163Z,12.73
2018-02-05T14:01:00.676Z,11.93
2018-02-05T14:03:30.159Z,12.07
2018-02-05T14:05:59.656Z,11.85
2018-02-05T14:08:29.163Z,12.75
2018-02-05T14:10:58.871Z,11.38
2018-02-05T14:13:28.393Z,10.60
2018-02-05T14:15:57.859Z,10.90
2018-02-05T14:18:27.397Z,11.85
2018-02-05T14:20:56.871Z,12.43
2018-02-05T14:23:26.401Z,13.48
2018-02-05T14:25:55.875Z,12.27
2018-02-05T14:28:25.385Z,11.07
2018-02-05T14:30:55.587Z,10.93
2018-02-05T14:33:25.098Z,11.93
2018-02-05T14:35:54.596Z,11.90
2018-02-05T14:38:24.081Z,11.68
2018-02-05T14:40:53.607Z,10.95
2018-02-05T14:43:23.097Z,11.80
2018-02-05T14:45:52.610Z,11.32
2018-02-05T14:48:22.097Z,12.00
2018-02-05T14:50:51.759Z,11.57
2018-02-05T14:53:21.368Z,11.82
2018-02-05T14:55:50.878Z,10.57
2018-02-05T14:58:20.347Z,11.18
2018-02-05T15:00:49.838Z,11.75
2018-02-05T15:03:19.333Z,11.15
2018-02-05T15:05:48.862Z,12.20
2018-02-05T15:08:18.319Z,11.57
2018-02-05T15:10:47.821Z,10.50
2018-02-05T15:13:17.285Z,11.10
2018-02-05T15:15:46.800Z,10.85
2018-02-05T15:18:16.322Z,9.77
2018-02-05T15:20:45.800Z,9.88
2018-02-05T15:23:15.305Z,11.00
2018-02-05T15:25:44.816Z,10.45
2018-02-05T15:28:14.314Z,11.80
2018-02-05T15:30:43.919Z,10.38
2018-02-05T15:33:13.433Z,10.68
2018-02-05T15:35:42.929Z,10.50
2018-02-05T15:38:12.423Z,10.85
2018-02-05T15:40:41.962Z,10.80
2018-02-05T15:43:11.485Z,10.45
2018-02-05T15:45:40.972Z,10.32
2018-02-05T15:48:10.462Z,11.10
2018-02-05T15:50:39.973Z,10.90
2018-02-05T15:53:09.485Z,11.07
2018-02-05T15:55:38.960Z,11.20
2018-02-05T15:58:08.453Z,10.10
2018-02-05T16:00:37.933Z,10.75
2018-02-05T16:03:07.465Z,10.27
2018-02-05T16:05:36.945Z,10.88
2018-02-05T16:08:06.500Z,10.88
2018-02-05T16:10:35.992Z,10.15
2018-02-05T16:13:05.503Z,11.07
2018-02-05T16:15:35.021Z,9.60
2018-02-05T16:18:04.518Z,10.40
2018-02-05T16:20:34.047Z,11.75
2018-02-05T16:23:03.562Z,11.80
2018-02-05T16:25:33.071Z,10.73
2018-02-05T16:28:02.563Z,10.80
2018-02-05T16:30:32.077Z,11.38
2018-02-05T16:33:01.746Z,11.45
2018-02-05T16:35:31.345Z,11.52
2018-02-05T16:38:00.852Z,12.60
2018-02-05T16:40:30.359Z,12.07
2018-02-05T16:42:59.889Z,11.27
2018-02-05T16:45:29.367Z,12.20
2018-02-05T16:47:58.952Z,11.43
2018-02-05T16:50:28.596Z,12.57
2018-02-05T16:52:58.175Z,13.57
2018-02-05T16:55:27.695Z,12.43
2018-02-05T16:57:57.219Z,12.18
2018-02-05T17:00:26.742Z,12.55
2018-02-05T17:02:56.322Z,11.73
2018-02-05T17:05:25.809Z,12.05
2018-02-05T17:07:56.866Z,12.65
2018-02-05T17:10:26.361Z,11.70
2018-02-05T17:12:56.026Z,12.98
2018-02-05T17:15:25.632Z,11.70
2018-02-05T17:17:55.159Z,11.50
2018-02-05T17:20:24.680Z,12.10
2018-02-05T17:22:54.227Z,12.02
2018-02-05T17:25:23.711Z,12.73
2018-02-05T17:27:53.335Z,11.35
2018-02-05T17:30:22.825Z,10.85
2018-02-05T17:32:52.366Z,11.23
2018-02-05T17:35:21.861Z,10.85
2018-02-05T17:37:51.390Z,9.48
2018-02-05T17:40:20.864Z,9.43
2018-02-05T17:42:50.383Z,9.23
2018-02-05T17:45:19.920Z,8.13
2018-02-05T17:47:49.460Z,8.90
2018-02-05T17:50:18.960Z,9.57
2018-02-05T17:52:48.472Z,8.00
2018-02-05T17:55:18.014Z,9.57
2018-02-05T17:57:47.491Z,9.10
2018-02-05T18:00:17.027Z,8.88
2018-02-05T18:02:46.498Z,8.65
2018-02-05T18:05:16.017Z,9.38
2018-02-05T18:07:45.500Z,8.60
2018-02-05T18:10:15.008Z,8.98
2018-02-05T18:12:44.501Z,7.22
2018-02-05T18:15:14.059Z,8.10
2018-02-05T18:17:43.564Z,10.75
2018-02-05T18:20:13.064Z,10.77
2018-02-05T18:22:42.533Z,11.60
2018-02-05T18:25:12.041Z,12.80
2018-02-05T18:27:41.551Z,14.05
2018-02-05T18:30:11.055Z,13.05
2018-02-05T18:32:40.583Z,13.93
2018-02-05T18:35:10.074Z,15.23
2018-02-05T18:37:39.616Z,17.00
2018-02-05T18:40:09.080Z,15.32
2018-02-05T18:42:38.588Z,17.15
2018-02-05T18:45:08.073Z,20.15
2018-02-05T18:47:37.610Z,17.87
2018-02-05T18:50:07.085Z,15.50
2018-02-05T18:52:36.592Z,15.05
2018-02-05T18:55:06.074Z,17.23
2018-02-05T18:57:35.607Z,22.95
2018-02-05T19:00:10.832Z,21.62
2018-02-05T19:02:40.499Z,19.27
2018-02-05T19:05:09.864Z,16.40
2018-02-05T19:07:39.331Z,16.62
2018-02-05T19:10:08.829Z,14.75
2018-02-05T19:12:38.325Z,15.18
2018-02-05T19:15:07.824Z,16.25
2018-02-05T19:17:37.282Z,15.85
2018-02-05T19:20:06.825Z,16.17
2018-02-05T19:22:36.288Z,15.85
2018-02-05T19:25:05.825Z,14.48
2018-02-05T19:27:35.367Z,15.25
2018-02-05T19:30:04.894Z,13.85
2018-02-05T19:32:34.383Z,14.95
2018-02-05T19:35:03.909Z,15.38
2018-02-05T19:37:33.692Z,15.35
2018-02-05T19:40:03.188Z,14.63
2018-02-05T19:42:32.692Z,14.77
2018-02-05T19:45:02.229Z,14.35
2018-02-05T19:47:31.741Z,14.50
2018-02-05T19:50:01.392Z,13.27
2018-02-05T19:52:30.924Z,12.45
2018-02-05T19:55:00.503Z,12.70
2018-02-05T19:57:30.079Z,13.98
2018-02-05T19:59:59.570Z,13.62
2018-02-05T20:02:29.117Z,12.75
2018-02-05T20:04:58.626Z,13.10
2018-02-05T20:07:28.164Z,13.25
2018-02-05T20:09:57.661Z,14.45
2018-02-05T20:12:27.204Z,13.75
2018-02-05T20:14:56.716Z,14.13
2018-02-05T20:17:27.130Z,14.00
2018-02-05T20:19:56.739Z,13.82
2018-02-05T20:22:26.263Z,13.15
2018-02-05T20:24:55.810Z,13.18
2018-02-05T20:27:25.473Z,13.55
2018-02-05T20:29:55.014Z,13.52
2018-02-05T20:32:24.610Z,13.68
2018-02-05T20:34:54.170Z,13.62
2018-02-05T20:37:23.751Z,13.32
2018-02-05T20:39:53.324Z,13.57
2018-02-05T20:42:22.822Z,14.77
2018-02-05T20:44:52.384Z,14.38
2018-02-05T20:47:21.931Z,13.07
2018-02-05T20:49:51.425Z,13.80
2018-02-05T20:52:20.911Z,13.73
2018-02-05T20:54:50.438Z,12.20
2018-02-05T20:57:20.068Z,13.48
2018-02-05T20:59:49.617Z,12.65
2018-02-05T21:02:19.133Z,12.55
2018-02-05T21:04:48.633Z,13.73
2018-02-05T21:07:18.209Z,16.25
2018-02-05T21:09:47.691Z,13.55
2018-02-05T21:12:17.222Z,12.30
2018-02-05T21:14:46.692Z,12.77
2018-02-05T21:17:16.241Z,10.88
2018-02-05T21:19:45.724Z,11.12
2018-02-05T21:22:15.243Z,10.95
2018-02-05T21:24:44.781Z,9.73
2018-02-05T21:27:14.262Z,12.02
2018-02-05T21:29:43.806Z,12.90
2018-02-05T21:32:13.420Z,11.65
2018-02-05T21:34:42.986Z,11.27
2018-02-05T21:37:12.479Z,11.73
2018-02-05T21:39:42.047Z,11.50
2018-02-05T21:42:11.559Z,10.40
2018-02-05T21:44:41.059Z,10.48
2018-02-05T21:47:10.592Z,11.55
2018-02-05T21:49:40.174Z,10.73
2018-02-05T21:52:09.666Z,10.50
2018-02-05T21:54:39.186Z,11.80
2018-02-05T21:57:08.704Z,10.27
2018-02-05T21:59:38.217Z,10.43
2018-02-05T22:02:07.815Z,9.80
2018-02-05T22:04:37.339Z,10.60
2018-02-05T22:07:06.919Z,9.65
2018-02-05T22:09:36.435Z,10.27
2018-02-05T22:12:05.949Z,10.25
2018-02-05T22:14:35.428Z,9.70
2018-02-05T22:17:04.909Z,9.88
2018-02-05T22:19:34.395Z,10.32
2018-02-05T22:22:03.905Z,10.50
2018-02-05T22:24:33.389Z,9.93
2018-02-05T22:27:02.900Z,10.50
2018-02-05T22:29:32.374Z,11.40
2018-02-05T22:32:01.915Z,10.77
2018-02-05T22:34:31.385Z,10.15
2018-02-05T22:37:00.857Z,11.73
2018-02-05T22:39:30.323Z,10.80
2018-02-05T22:41:59.963Z,10.73
2018-02-05T22:44:29.471Z,11.55
2018-02-05T22:46:58.987Z,10.95
2018-02-05T22:49:28.459Z,10.50
2018-02-05T22:51:57.972Z,10.68
2018-02-05T22:54:27.442Z,10.48
2018-02-05T22:56:56.937Z,10.18
2018-02-05T22:59:26.502Z,10.27
2018-02-05T23:01:56.018Z,10.60
2018-02-05T23:04:25.547Z,10.50
2018-02-05T23:06:55.058Z,10.20
2018-02-05T23:09:24.585Z,11.25
2018-02-05T23:11:54.071Z,11.07
2018-02-05T23:14:23.548Z,10.65
2018-02-05T23:16:53.076Z,9.98
2018-02-05T23:19:34.485Z,11.12
2018-02-05T23:22:03.990Z,11.73
2018-02-05T23:24:33.533Z,10.50
2018-02-05T23:27:03.071Z,10.85
2018-02-05T23:29:32.571Z,11.75
2018-02-05T23:32:02.038Z,11.02
2018-02-05T23:34:31.569Z,11.73
2018-02-05T23:37:01.048Z,10.38
2018-02-05T23:39:30.548Z,10.88
2018-02-05T23:42:00.043Z,10.45
2018-02-05T23:44:29.552Z,11.75
2018-02-05T23:46:59.019Z,11.10
2018-02-05T23:49:28.534Z,10.60
2018-02-05T23:51:58.016Z,9.80
2018-02-05T23:54:27.549Z,10.23
2018-02-05T23:56:57.006Z,9.75
2018-02-05T23:59:26.493Z,10.52
